Time;durP1;ratioP1;P1;durP2;ratioP2;P2;SDS_P1;SDS_P2;PMS_P1;PMS_P2;Temp;Humidity;BMP_temperature;BMP_pressure;BME280_temperature;BME280_humidity;BME280_pressure;Samples;Min_cycle;Max_cycle;Signal;HPM_P1;HPM_P2
2022/08/28 00:01:04;;;;;;;12.63;6.13;;;;;;;;;;5051695;28;20053;-60
2022/08/28 00:03:31;;;;;;;12.23;6.97;;;;;;;;;;5051709;28;20052;-60
2022/08/28 00:05:58;;;;;;;16.03;5.97;;;;;;;;;;5050093;28;20510;-60
2022/08/28 00:08:24;;;;;;;13.57;5.43;;;;;;;;;;5051445;28;20107;-60
2022/08/28 00:10:51;;;;;;;23.03;7.00;;;;;;;;;;5051600;28;20080;-60
2022/08/28 00:13:19;;;;;;;16.40;6.57;;;;;;;;;;5051970;28;20048;-60
2022/08/28 00:15:47;;;;;;;17.17;6.60;;;;;;;;;;5051429;28;20053;-60
2022/08/28 00:18:13;;;;;;;13.33;7.07;;;;;;;;;;5051347;28;20044;-60
2022/08/28 00:20:39;;;;;;;16.97;6.47;;;;;;;;;;5051282;28;20051;-60
2022/08/28 00:23:06;;;;;;;16.07;7.30;;;;;;;;;;5050431;28;20052;-60
2022/08/28 00:25:33;;;;;;;17.37;7.83;;;;;;;;;;5051709;28;20048;-60
2022/08/28 00:28:00;;;;;;;16.90;7.70;;;;;;;;;;5051628;28;20079;-60
2022/08/28 00:30:28;;;;;;;17.93;7.50;;;;;;;;;;5051018;28;20056;-60
2022/08/28 00:32:57;;;;;;;19.13;7.80;;;;;;;;;;5051305;28;20052;-60
2022/08/28 00:35:23;;;;;;;18.50;8.40;;;;;;;;;;5051322;28;20049;-60
2022/08/28 00:37:50;;;;;;;15.97;8.63;;;;;;;;;;5051426;28;20060;-60
2022/08/28 00:40:20;;;;;;;16.83;7.53;;;;;;;;;;5050248;28;20491;-60
2022/08/28 00:42:46;;;;;;;19.57;8.77;;;;;;;;;;5050577;28;20055;-60
2022/08/28 00:45:16;;;;;;;27.23;9.00;;;;;;;;;;5051264;28;20704;-60
2022/08/28 00:47:42;;;;;;;25.10;10.37;;;;;;;;;;5051712;28;20052;-60
2022/08/28 00:50:11;;;;;;;15.17;7.63;;;;;;;;;;5051012;28;20048;-60
2022/08/28 00:52:37;;;;;;;22.47;8.23;;;;;;;;;;5050892;28;20045;-60
2022/08/28 00:55:15;;;;;;;19.60;8.70;;;;;;;;;;5050454;28;20851;-60
2022/08/28 00:57:43;;;;;;;15.40;8.10;;;;;;;;;;5050590;28;20053;-60
2022/08/28 01:00:15;;;;;;;19.00;8.23;;;;;;;;;;5050800;28;20099;-60
2022/08/28 01:02:42;;;;;;;17.77;8.97;;;;;;;;;;5051062;28;20087;-60
2022/08/28 01:05:09;;;;;;;19.00;8.10;;;;;;;;;;5050595;28;20053;-60
2022/08/28 01:07:35;;;;;;;20.97;7.83;;;;;;;;;;5050465;28;20095;-60
2022/08/28 01:10:02;;;;;;;21.40;8.27;;;;;;;;;;5050766;28;20541;-60
2022/08/28 01:12:29;;;;;;;24.40;10.50;;;;;;;;;;5050323;28;20533;-60
2022/08/28 01:14:58;;;;;;;21.53;8.93;;;;;;;;;;5050958;28;20049;-60
2022/08/28 01:17:26;;;;;;;18.00;10.00;;;;;;;;;;5050522;28;20190;-60
2022/08/28 01:19:57;;;;;;;19.27;8.67;;;;;;;;;;5050580;28;20113;-60
2022/08/28 01:22:32;;;;;;;19.93;9.60;;;;;;;;;;5050592;28;20525;-60
2022/08/28 01:24:59;;;;;;;19.20;9.37;;;;;;;;;;5050355;28;20045;-59
2022/08/28 01:27:26;;;;;;;20.00;8.13;;;;;;;;;;5050388;28;20052;-60
2022/08/28 01:29:52;;;;;;;20.77;8.47;;;;;;;;;;5049790;28;20067;-60
2022/08/28 01:32:39;;;;;;;18.63;7.80;;;;;;;;;;5050448;28;20056;-60
2022/08/28 01:35:08;;;;;;;26.10;9.43;;;;;;;;;;5050571;28;20054;-59
2022/08/28 01:37:35;;;;;;;17.73;7.77;;;;;;;;;;5049714;28;20403;-60
2022/08/28 01:40:01;;;;;;;20.27;9.03;;;;;;;;;;5049618;28;20525;-60
2022/08/28 01:42:27;;;;;;;16.80;7.90;;;;;;;;;;5050260;28;20133;-60
2022/08/28 01:44:53;;;;;;;17.00;8.93;;;;;;;;;;5049530;28;20052;-60
2022/08/28 01:47:20;;;;;;;22.13;9.20;;;;;;;;;;5049406;28;20087;-60
2022/08/28 01:49:46;;;;;;;24.13;8.93;;;;;;;;;;5050056;28;20048;-60
2022/08/28 01:52:12;;;;;;;20.80;8.93;;;;;;;;;;5050022;28;20040;-60
2022/08/28 01:54:39;;;;;;;20.50;9.70;;;;;;;;;;5050274;28;20045;-60
2022/08/28 01:57:05;;;;;;;18.80;8.67;;;;;;;;;;5049966;28;20049;-60
2022/08/28 01:59:32;;;;;;;21.07;8.83;;;;;;;;;;5049941;28;20079;-60
2022/08/28 02:01:58;;;;;;;23.30;9.33;;;;;;;;;;5049931;28;20064;-59
2022/08/28 02:04:24;;;;;;;18.23;9.43;;;;;;;;;;5050116;28;20056;-60
2022/08/28 02:06:50;;;;;;;21.87;9.30;;;;;;;;;;5050168;28;20045;-60
2022/08/28 02:09:17;;;;;;;25.33;10.10;;;;;;;;;;5049547;28;20189;-60
2022/08/28 02:11:44;;;;;;;18.27;9.03;;;;;;;;;;5049931;28;20056;-60
2022/08/28 02:14:10;;;;;;;22.27;8.93;;;;;;;;;;5050494;28;20045;-60
2022/08/28 02:16:36;;;;;;;25.53;10.20;;;;;;;;;;5050487;28;20146;-60
2022/08/28 02:19:02;;;;;;;19.53;9.50;;;;;;;;;;5049667;28;20049;-60
2022/08/28 02:21:28;;;;;;;23.53;10.20;;;;;;;;;;5050072;28;20088;-59
2022/08/28 02:23:54;;;;;;;21.67;9.67;;;;;;;;;;5049527;28;20043;-60
2022/08/28 02:26:22;;;;;;;20.40;9.37;;;;;;;;;;5049246;28;20518;-60
2022/08/28 02:28:48;;;;;;;17.40;9.07;;;;;;;;;;5048882;28;20067;-59
2022/08/28 02:31:14;;;;;;;18.50;8.77;;;;;;;;;;5048101;28;20053;-60
2022/08/28 02:33:42;;;;;;;19.03;8.63;;;;;;;;;;5049110;28;20840;-60
2022/08/28 02:36:09;;;;;;;17.00;9.07;;;;;;;;;;5049207;28;20048;-60
2022/08/28 02:38:36;;;;;;;16.47;8.20;;;;;;;;;;5048854;28;20040;-60
2022/08/28 02:41:02;;;;;;;19.80;7.90;;;;;;;;;;5049049;28;20781;-60
2022/08/28 02:43:28;;;;;;;20.50;8.93;;;;;;;;;;5048675;28;20419;-60
2022/08/28 02:45:54;;;;;;;17.60;8.77;;;;;;;;;;5049190;28;20041;-60
2022/08/28 02:48:20;;;;;;;21.20;10.67;;;;;;;;;;5048850;28;20041;-60
2022/08/28 02:50:46;;;;;;;17.93;8.93;;;;;;;;;;5049079;28;20044;-60
2022/08/28 02:53:12;;;;;;;18.40;7.40;;;;;;;;;;5049010;28;20139;-60
2022/08/28 02:55:39;;;;;;;22.90;8.50;;;;;;;;;;5048554;28;20049;-59
2022/08/28 02:58:05;;;;;;;14.97;7.33;;;;;;;;;;5048182;28;20575;-60
2022/08/28 03:00:31;;;;;;;14.10;8.43;;;;;;;;;;5049106;28;20048;-60
2022/08/28 03:02:57;;;;;;;19.40;9.37;;;;;;;;;;5048531;28;20411;-60
2022/08/28 03:05:24;;;;;;;26.30;10.07;;;;;;;;;;5048354;28;20052;-60
2022/08/28 03:07:52;;;;;;;18.17;8.90;;;;;;;;;;5048506;28;20112;-60
2022/08/28 03:10:18;;;;;;;16.10;8.70;;;;;;;;;;5048683;28;20051;-60
2022/08/28 03:12:44;;;;;;;14.70;5.80;;;;;;;;;;5048495;28;20053;-61
2022/08/28 03:15:11;;;;;;;15.67;8.60;;;;;;;;;;5048807;28;20091;-60
2022/08/28 03:17:37;;;;;;;16.90;7.97;;;;;;;;;;5047763;28;20045;-60
2022/08/28 03:20:07;;;;;;;18.97;8.17;;;;;;;;;;5048578;28;20410;-60
2022/08/28 03:25:18;;;;;;;19.90;8.07;;;;;;;;;;5048471;28;20041;-60
2022/08/28 03:27:44;;;;;;;14.00;7.10;;;;;;;;;;5048025;28;20099;-60
2022/08/28 03:30:11;;;;;;;21.23;8.70;;;;;;;;;;5048046;28;20507;-60
2022/08/28 03:32:37;;;;;;;18.10;8.73;;;;;;;;;;5047777;28;20110;-60
2022/08/28 03:35:04;;;;;;;20.33;8.83;;;;;;;;;;5048237;28;20446;-60
2022/08/28 03:37:30;;;;;;;22.03;8.60;;;;;;;;;;5048388;28;20522;-60
2022/08/28 03:39:56;;;;;;;24.67;8.63;;;;;;;;;;5048069;28;20041;-60
2022/08/28 03:42:23;;;;;;;21.07;8.93;;;;;;;;;;5047831;28;20556;-60
2022/08/28 03:44:49;;;;;;;24.83;9.50;;;;;;;;;;5048320;28;20076;-60
2022/08/28 03:47:15;;;;;;;19.37;8.47;;;;;;;;;;5048063;28;20052;-60
2022/08/28 03:49:44;;;;;;;27.37;8.80;;;;;;;;;;5048395;28;20045;-60
2022/08/28 03:52:10;;;;;;;25.10;8.93;;;;;;;;;;5048491;28;20049;-60
2022/08/28 03:54:36;;;;;;;17.33;8.57;;;;;;;;;;5047646;28;20044;-60
2022/08/28 03:57:02;;;;;;;19.57;8.50;;;;;;;;;;5047862;28;20044;-60
2022/08/28 03:59:28;;;;;;;21.00;9.70;;;;;;;;;;5047922;28;20045;-59
2022/08/28 04:01:54;;;;;;;25.03;10.43;;;;;;;;;;5047031;28;20049;-59
2022/08/28 04:04:20;;;;;;;17.30;8.40;;;;;;;;;;5047946;28;20068;-60
2022/08/28 04:06:46;;;;;;;20.80;8.63;;;;;;;;;;5047172;28;20103;-60
2022/08/28 04:09:12;;;;;;;17.47;8.60;;;;;;;;;;5047844;28;20045;-60
2022/08/28 04:11:41;;;;;;;19.10;8.00;;;;;;;;;;5047698;28;20045;-60
2022/08/28 04:14:07;;;;;;;17.93;7.97;;;;;;;;;;5049834;28;20053;-60
2022/08/28 04:16:33;;;;;;;20.80;9.37;;;;;;;;;;5051220;28;20044;-60
2022/08/28 04:19:00;;;;;;;23.43;8.93;;;;;;;;;;5051206;28;20029;-60
2022/08/28 04:21:26;;;;;;;23.80;10.30;;;;;;;;;;5051757;28;20052;-60
2022/08/28 04:23:53;;;;;;;24.73;9.30;;;;;;;;;;5051422;28;20063;-59
2022/08/28 04:26:21;;;;;;;21.70;8.47;;;;;;;;;;5051689;28;20222;-59
2022/08/28 04:28:48;;;;;;;17.00;8.80;;;;;;;;;;5050817;28;20060;-60
2022/08/28 04:31:14;;;;;;;20.10;8.83;;;;;;;;;;5051184;28;20091;-60
2022/08/28 04:33:40;;;;;;;21.77;9.00;;;;;;;;;;5049798;28;20095;-60
2022/08/28 04:36:10;;;;;;;19.77;9.47;;;;;;;;;;5051106;28;20502;-59
2022/08/28 04:38:36;;;;;;;16.43;8.17;;;;;;;;;;5050762;28;20447;-60
2022/08/28 04:41:04;;;;;;;22.20;10.40;;;;;;;;;;5050210;28;20090;-60
2022/08/28 04:43:30;;;;;;;19.13;9.80;;;;;;;;;;5050486;28;20043;-60
2022/08/28 04:45:56;;;;;;;20.90;9.03;;;;;;;;;;5050606;28;20045;-60
2022/08/28 04:48:22;;;;;;;24.50;10.50;;;;;;;;;;5050363;28;20060;-60
2022/08/28 04:50:49;;;;;;;22.47;10.23;;;;;;;;;;5050633;28;20041;-60
2022/08/28 04:53:16;;;;;;;25.27;10.77;;;;;;;;;;5050224;28;20037;-60
2022/08/28 04:55:44;;;;;;;19.73;9.17;;;;;;;;;;5049662;28;20053;-60
2022/08/28 04:58:11;;;;;;;22.47;10.23;;;;;;;;;;5050578;28;20056;-60
2022/08/28 05:00:37;;;;;;;26.57;10.73;;;;;;;;;;5050568;28;20091;-60
2022/08/28 05:03:03;;;;;;;17.17;9.17;;;;;;;;;;5050468;28;20091;-60
2022/08/28 05:05:30;;;;;;;18.47;9.63;;;;;;;;;;5050106;28;20049;-60
2022/08/28 05:07:56;;;;;;;25.73;8.90;;;;;;;;;;5050182;28;20075;-60
2022/08/28 05:10:22;;;;;;;21.37;8.97;;;;;;;;;;5050196;28;20045;-60
2022/08/28 05:12:49;;;;;;;20.83;9.03;;;;;;;;;;5050286;28;20403;-60
2022/08/28 05:15:15;;;;;;;20.17;8.80;;;;;;;;;;5049688;28;20139;-60
2022/08/28 05:17:41;;;;;;;24.53;8.97;;;;;;;;;;5049969;28;20041;-60
2022/08/28 05:20:07;;;;;;;15.40;7.07;;;;;;;;;;5049941;28;20041;-60
2022/08/28 05:22:33;;;;;;;19.20;8.67;;;;;;;;;;5049638;28;20965;-60
2022/08/28 05:24:59;;;;;;;20.87;9.23;;;;;;;;;;5048882;28;20057;-60
2022/08/28 05:27:26;;;;;;;22.47;9.33;;;;;;;;;;5049651;28;20064;-60
2022/08/28 05:29:52;;;;;;;22.20;9.27;;;;;;;;;;5045618;28;20056;-60
2022/08/28 05:32:19;;;;;;;18.87;6.67;;;;;;;;;;5046775;28;20077;-60
2022/08/28 05:34:45;;;;;;;17.87;7.40;;;;;;;;;;5048895;28;20132;-60
2022/08/28 05:37:11;;;;;;;21.00;8.97;;;;;;;;;;5049511;28;20029;-59
2022/08/28 05:39:37;;;;;;;19.33;7.40;;;;;;;;;;5049202;28;20037;-60
2022/08/28 05:42:04;;;;;;;18.90;6.60;;;;;;;;;;5048993;28;20439;-60
2022/08/28 05:44:30;;;;;;;10.23;6.67;;;;;;;;;;5049071;28;20056;-60
2022/08/28 05:46:57;;;;;;;15.83;8.67;;;;;;;;;;5048982;28;20060;-60
2022/08/28 05:49:23;;;;;;;13.33;7.57;;;;;;;;;;5048724;28;20059;-60
2022/08/28 05:51:49;;;;;;;18.83;7.43;;;;;;;;;;5049043;28;20041;-60
2022/08/28 05:54:16;;;;;;;26.13;9.40;;;;;;;;;;5049041;28;20259;-60
2022/08/28 05:56:43;;;;;;;19.60;7.00;;;;;;;;;;5047833;28;20044;-60
2022/08/28 05:59:09;;;;;;;15.17;7.53;;;;;;;;;;5048802;28;20497;-60
2022/08/28 06:01:39;;;;;;;12.63;6.83;;;;;;;;;;5048684;28;20389;-60
2022/08/28 06:04:13;;;;;;;17.60;8.13;;;;;;;;;;5044566;28;20494;-60
2022/08/28 06:06:40;;;;;;;18.70;7.73;;;;;;;;;;5046931;28;20052;-60
2022/08/28 06:09:11;;;;;;;22.07;9.33;;;;;;;;;;5048325;28;20048;-60
2022/08/28 06:11:37;;;;;;;15.57;7.00;;;;;;;;;;5048238;28;20052;-60
2022/08/28 06:14:08;;;;;;;10.13;3.80;;;;;;;;;;5048682;28;20060;-60
2022/08/28 06:16:35;;;;;;;14.27;6.47;;;;;;;;;;5048257;28;20037;-60
2022/08/28 06:19:01;;;;;;;13.50;6.33;;;;;;;;;;5049334;28;20037;-59
2022/08/28 06:21:27;;;;;;;12.23;4.60;;;;;;;;;;5047440;28;20553;-60
2022/08/28 06:23:54;;;;;;;12.07;5.60;;;;;;;;;;5048849;28;20045;-60
2022/08/28 06:26:20;;;;;;;11.60;5.50;;;;;;;;;;5048541;28;20098;-60
2022/08/28 06:28:46;;;;;;;7.90;3.93;;;;;;;;;;5047207;28;20055;-60
2022/08/28 06:31:12;;;;;;;19.17;6.37;;;;;;;;;;5048735;28;20056;-60
2022/08/28 06:33:38;;;;;;;11.27;6.23;;;;;;;;;;5048224;28;20041;-60
2022/08/28 06:36:06;;;;;;;10.67;5.73;;;;;;;;;;5048103;28;20049;-60
2022/08/28 06:38:32;;;;;;;13.03;6.30;;;;;;;;;;5045575;28;20105;-60
2022/08/28 06:40:58;;;;;;;8.57;3.73;;;;;;;;;;5048397;28;20037;-60
2022/08/28 06:43:26;;;;;;;12.23;4.37;;;;;;;;;;5046940;28;20048;-60
2022/08/28 06:45:53;;;;;;;11.60;3.20;;;;;;;;;;5048157;28;20037;-60
2022/08/28 06:48:20;;;;;;;10.90;4.07;;;;;;;;;;5048403;28;20044;-60
2022/08/28 06:50:51;;;;;;;10.23;3.93;;;;;;;;;;5047925;28;20037;-60
2022/08/28 06:53:18;;;;;;;8.33;3.27;;;;;;;;;;5048471;28;20068;-60
2022/08/28 06:55:44;;;;;;;10.43;3.57;;;;;;;;;;5046457;28;20132;-60
2022/08/28 06:58:11;;;;;;;12.07;3.83;;;;;;;;;;5047759;28;20041;-60
2022/08/28 07:00:38;;;;;;;7.10;3.30;;;;;;;;;;5048058;28;20041;-60
2022/08/28 07:03:05;;;;;;;16.70;4.00;;;;;;;;;;5045510;28;20111;-60
2022/08/28 07:05:32;;;;;;;12.13;3.80;;;;;;;;;;5047590;28;20124;-59
2022/08/28 07:07:59;;;;;;;7.60;3.03;;;;;;;;;;5047939;28;20092;-59
2022/08/28 07:10:27;;;;;;;13.13;3.70;;;;;;;;;;5047135;28;20047;-60
2022/08/28 07:12:53;;;;;;;9.10;3.57;;;;;;;;;;5045886;28;20412;-59
2022/08/28 07:15:20;;;;;;;11.97;3.40;;;;;;;;;;5047822;28;20419;-59
2022/08/28 07:17:46;;;;;;;15.50;3.33;;;;;;;;;;5046965;28;20041;-59
2022/08/28 07:20:12;;;;;;;11.07;2.80;;;;;;;;;;5047433;28;20045;-60
2022/08/28 07:22:39;;;;;;;9.53;3.20;;;;;;;;;;5046733;28;20569;-60
2022/08/28 07:25:06;;;;;;;10.73;3.23;;;;;;;;;;5047623;28;20072;-60
2022/08/28 07:27:32;;;;;;;12.13;2.63;;;;;;;;;;5047358;28;20033;-60
2022/08/28 07:30:00;;;;;;;7.90;2.10;;;;;;;;;;5046829;28;20044;-60
2022/08/28 07:32:27;;;;;;;10.40;2.70;;;;;;;;;;5047537;28;20415;-60
2022/08/28 07:34:55;;;;;;;10.10;2.83;;;;;;;;;;5047423;28;20681;-60
2022/08/28 07:37:21;;;;;;;6.47;2.30;;;;;;;;;;5046811;28;20503;-60
2022/08/28 07:39:47;;;;;;;6.77;1.90;;;;;;;;;;5047366;28;20095;-60
2022/08/28 07:44:48;;;;;;;9.00;2.33;;;;;;;;;;5047398;28;20063;-60
2022/08/28 07:45:01;;;;;;;11.43;2.57;;;;;;;;;;5046274;28;20128;-60
2022/08/28 07:47:30;;;;;;;7.73;2.10;;;;;;;;;;5047084;28;20045;-60
2022/08/28 07:50:00;;;;;;;7.43;2.10;;;;;;;;;;5051234;28;20128;-60
2022/08/28 07:52:28;;;;;;;5.87;2.00;;;;;;;;;;5049361;28;20462;-60
2022/08/28 07:54:54;;;;;;;12.90;2.70;;;;;;;;;;5051740;28;20048;-60
2022/08/28 07:57:20;;;;;;;12.20;2.30;;;;;;;;;;5051611;28;20048;-61
2022/08/28 07:59:47;;;;;;;9.37;2.13;;;;;;;;;;5050531;28;20499;-61
2022/08/28 08:02:13;;;;;;;12.03;2.10;;;;;;;;;;5048649;28;20099;-60
2022/08/28 08:04:39;;;;;;;8.63;2.20;;;;;;;;;;5048988;28;20040;-61
2022/08/28 08:07:06;;;;;;;11.80;1.83;;;;;;;;;;5050177;28;20045;-61
2022/08/28 08:09:36;;;;;;;8.30;1.90;;;;;;;;;;5051478;28;20091;-60
2022/08/28 08:12:02;;;;;;;11.40;1.90;;;;;;;;;;5051850;28;20048;-60
2022/08/28 08:14:28;;;;;;;5.33;1.70;;;;;;;;;;5050553;28;20515;-60
2022/08/28 08:16:54;;;;;;;16.47;3.20;;;;;;;;;;5051857;28;20076;-60
2022/08/28 08:19:20;;;;;;;5.90;1.50;;;;;;;;;;5044897;28;20399;-60
2022/08/28 08:21:49;;;;;;;4.60;1.43;;;;;;;;;;5031440;28;20539;-60
2022/08/28 08:24:19;;;;;;;7.07;1.77;;;;;;;;;;5031565;28;20144;-61
2022/08/28 08:26:46;;;;;;;7.43;1.60;;;;;;;;;;5044777;28;20051;-60
2022/08/28 08:29:13;;;;;;;6.53;1.60;;;;;;;;;;5048598;28;20063;-61
2022/08/28 08:31:39;;;;;;;8.40;1.50;;;;;;;;;;5050744;28;20048;-61
2022/08/28 08:34:05;;;;;;;4.07;1.20;;;;;;;;;;5039743;28;20041;-61
2022/08/28 08:36:32;;;;;;;5.20;1.30;;;;;;;;;;5036766;28;20047;-61
2022/08/28 08:38:59;;;;;;;5.73;2.17;;;;;;;;;;5049299;28;20044;-61
2022/08/28 08:41:30;;;;;;;4.37;1.83;;;;;;;;;;5047644;28;20487;-61
2022/08/28 08:43:56;;;;;;;4.37;1.43;;;;;;;;;;5046114;28;20055;-61
2022/08/28 08:46:31;;;;;;;3.87;1.27;;;;;;;;;;5047495;28;20053;-60
2022/08/28 08:49:00;;;;;;;6.10;1.73;;;;;;;;;;5051219;28;20048;-61
2022/08/28 08:51:39;;;;;;;3.80;1.37;;;;;;;;;;5043865;28;20053;-61
2022/08/28 08:54:09;;;;;;;7.70;1.80;;;;;;;;;;5050653;28;20132;-61
2022/08/28 08:56:35;;;;;;;3.33;1.17;;;;;;;;;;5050245;28;20041;-61
2022/08/28 08:59:03;;;;;;;7.03;1.70;;;;;;;;;;5050676;28;20044;-61
2022/08/28 09:01:36;;;;;;;3.37;1.77;;;;;;;;;;5049346;28;20052;-61
2022/08/28 09:04:11;;;;;;;6.83;1.40;;;;;;;;;;5050555;28;20116;-61
2022/08/28 09:06:47;;;;;;;5.00;1.50;;;;;;;;;;5050110;28;20076;-61
2022/08/28 09:09:16;;;;;;;6.43;1.90;;;;;;;;;;5050450;28;20146;-61
2022/08/28 09:11:43;;;;;;;4.43;1.43;;;;;;;;;;5050076;28;20051;-61
2022/08/28 09:14:19;;;;;;;5.27;1.33;;;;;;;;;;5050502;28;20049;-62
2022/08/28 09:16:46;;;;;;;4.90;1.30;;;;;;;;;;5050107;28;20495;-61
2022/08/28 09:19:16;;;;;;;5.63;1.00;;;;;;;;;;5050118;28;20491;-62
2022/08/28 09:21:43;;;;;;;10.17;3.03;;;;;;;;;;5049966;28;20048;-61
2022/08/28 09:24:30;;;;;;;6.90;1.57;;;;;;;;;;5050138;28;20568;-61
2022/08/28 09:27:07;;;;;;;3.80;1.40;;;;;;;;;;5043411;28;20076;-61
2022/08/28 09:29:39;;;;;;;8.10;1.90;;;;;;;;;;5049755;28;20057;-62
2022/08/28 09:32:26;;;;;;;4.60;1.70;;;;;;;;;;5049700;28;20088;-61
2022/08/28 09:35:12;;;;;;;6.40;2.37;;;;;;;;;;5042321;28;20037;-61
2022/08/28 09:37:39;;;;;;;7.53;2.10;;;;;;;;;;5049713;28;20093;-61
2022/08/28 09:40:13;;;;;;;6.90;1.63;;;;;;;;;;5049317;28;20041;-61
2022/08/28 09:45:25;;;;;;;7.13;1.80;;;;;;;;;;5048998;28;20045;-61
2022/08/28 09:47:55;;;;;;;8.98;1.85;;;;;;;;;;5040076;28;20110;-61
2022/08/28 09:50:21;;;;;;;6.37;1.70;;;;;;;;;;5049898;28;20053;-61
2022/08/28 09:52:48;;;;;;;6.32;1.70;;;;;;;;;;5049317;28;20056;-61
2022/08/28 09:55:20;;;;;;;6.63;1.48;;;;;;;;;;5049378;28;20093;-61
2022/08/28 09:57:46;;;;;;;5.00;1.73;;;;;;;;;;5046517;28;20068;-61
2022/08/28 10:00:13;;;;;;;3.83;1.70;;;;;;;;;;5047048;28;20127;-61
2022/08/28 10:02:42;;;;;;;5.55;1.63;;;;;;;;;;5044388;28;20563;-61
2022/08/28 10:05:10;;;;;;;7.15;1.95;;;;;;;;;;5046583;28;20053;-61
2022/08/28 10:07:41;;;;;;;7.18;1.85;;;;;;;;;;5047611;28;20044;-61
2022/08/28 10:10:21;;;;;;;5.43;1.70;;;;;;;;;;5042644;28;20131;-61
2022/08/28 10:13:08;;;;;;;4.00;1.50;;;;;;;;;;5047091;28;20037;-61
2022/08/28 10:15:37;;;;;;;4.22;1.35;;;;;;;;;;5033211;28;20051;-61
2022/08/28 10:18:10;;;;;;;13.50;1.75;;;;;;;;;;5040942;28;20057;-61
2022/08/28 10:21:01;;;;;;;5.03;1.70;;;;;;;;;;5048486;28;20033;-61
2022/08/28 10:23:45;;;;;;;5.40;1.67;;;;;;;;;;5043451;28;20049;-61
2022/08/28 10:26:17;;;;;;;7.30;1.85;;;;;;;;;;5041045;28;20051;-62
2022/08/28 10:29:02;;;;;;;6.95;1.80;;;;;;;;;;5047779;28;20048;-62
2022/08/28 10:31:42;;;;;;;5.03;1.50;;;;;;;;;;5048570;28;20053;-62
2022/08/28 10:34:09;;;;;;;3.80;1.48;;;;;;;;;;5047895;28;20044;-61
2022/08/28 10:36:36;;;;;;;4.90;1.45;;;;;;;;;;5048370;28;20045;-62
2022/08/28 10:39:05;;;;;;;5.47;1.30;;;;;;;;;;5048451;28;20049;-62
2022/08/28 10:41:41;;;;;;;3.50;1.55;;;;;;;;;;5048891;28;20045;-62
2022/08/28 10:44:08;;;;;;;8.40;1.70;;;;;;;;;;5048060;28;20459;-62
2022/08/28 10:46:50;;;;;;;7.43;1.95;;;;;;;;;;5048761;28;20033;-62
2022/08/28 10:49:27;;;;;;;6.90;1.93;;;;;;;;;;5048726;28;20494;-62
2022/08/28 10:51:56;;;;;;;4.63;1.60;;;;;;;;;;5048484;28;20041;-62
2022/08/28 10:54:25;;;;;;;4.63;1.70;;;;;;;;;;5048517;28;20044;-62
2022/08/28 10:57:11;;;;;;;3.72;1.65;;;;;;;;;;5048293;28;20174;-62
2022/08/28 10:59:40;;;;;;;6.13;2.00;;;;;;;;;;5047722;28;20053;-62
2022/08/28 11:02:07;;;;;;;6.07;1.88;;;;;;;;;;5047649;28;20053;-62
2022/08/28 11:04:34;;;;;;;5.35;1.77;;;;;;;;;;5047836;28;20395;-61
2022/08/28 11:07:02;;;;;;;6.30;1.45;;;;;;;;;;5048097;28;20036;-61
2022/08/28 11:09:31;;;;;;;4.80;1.75;;;;;;;;;;5048586;28;20235;-62
2022/08/28 11:12:06;;;;;;;5.00;1.60;;;;;;;;;;5047995;28;20043;-62
2022/08/28 11:14:34;;;;;;;4.85;1.70;;;;;;;;;;5048106;28;20052;-62
2022/08/28 11:17:03;;;;;;;5.20;1.73;;;;;;;;;;5047470;28;20402;-62
2022/08/28 11:19:32;;;;;;;5.45;1.55;;;;;;;;;;5047994;28;20039;-62
2022/08/28 11:22:07;;;;;;;4.80;1.77;;;;;;;;;;5047754;28;20037;-62
2022/08/28 11:24:42;;;;;;;5.35;1.88;;;;;;;;;;5047465;28;20049;-62
2022/08/28 11:27:18;;;;;;;5.53;1.92;;;;;;;;;;5047774;28;20045;-61
2022/08/28 11:30:00;;;;;;;3.47;1.48;;;;;;;;;;5047402;28;20060;-62
2022/08/28 11:32:36;;;;;;;4.90;1.38;;;;;;;;;;5046851;28;20067;-62
2022/08/28 11:35:03;;;;;;;5.85;2.08;;;;;;;;;;5047783;28;20566;-62
2022/08/28 11:37:39;;;;;;;4.57;1.60;;;;;;;;;;5048054;28;20060;-61
2022/08/28 11:40:17;;;;;;;8.50;1.85;;;;;;;;;;5047917;28;20073;-61
2022/08/28 11:42:47;;;;;;;5.05;1.77;;;;;;;;;;5047620;28;20053;-62
2022/08/28 11:45:32;;;;;;;4.90;1.92;;;;;;;;;;5047553;28;20037;-62
2022/08/28 11:47:58;;;;;;;4.30;1.60;;;;;;;;;;5048176;28;20133;-62
2022/08/28 11:50:28;;;;;;;5.13;1.58;;;;;;;;;;5047463;28;20127;-62
2022/08/28 11:53:18;;;;;;;4.55;1.70;;;;;;;;;;5047477;28;20041;-62
2022/08/28 11:56:16;;;;;;;4.60;1.50;;;;;;;;;;5047327;28;20438;-61
2022/08/28 11:59:01;;;;;;;4.25;1.73;;;;;;;;;;5035863;28;20416;-61
2022/08/28 12:01:34;;;;;;;5.25;2.05;;;;;;;;;;5047593;28;20137;-62
2022/08/28 12:04:06;;;;;;;6.22;1.58;;;;;;;;;;5047518;28;20440;-62
2022/08/28 12:06:45;;;;;;;6.55;1.77;;;;;;;;;;5047695;28;20120;-62
2022/08/28 12:09:13;;;;;;;4.25;1.40;;;;;;;;;;5047644;28;20067;-62
2022/08/28 12:11:39;;;;;;;5.97;1.73;;;;;;;;;;5047521;28;20051;-62
2022/08/28 12:14:08;;;;;;;9.05;2.08;;;;;;;;;;5047399;28;20052;-62
2022/08/28 12:16:53;;;;;;;5.95;1.83;;;;;;;;;;5047284;28;20091;-62
2022/08/28 12:19:38;;;;;;;3.70;1.70;;;;;;;;;;5047577;28;20068;-62
2022/08/28 12:22:05;;;;;;;7.20;1.80;;;;;;;;;;5047060;28;20179;-61
2022/08/28 12:24:33;;;;;;;3.70;1.67;;;;;;;;;;5047451;28;20037;-64
2022/08/28 12:27:01;;;;;;;8.13;1.80;;;;;;;;;;5047838;28;20041;-62
2022/08/28 12:29:45;;;;;;;5.20;1.55;;;;;;;;;;5046912;28;20064;-62
2022/08/28 12:32:26;;;;;;;5.75;1.95;;;;;;;;;;5047702;28;20053;-61
2022/08/28 12:34:52;;;;;;;3.28;1.60;;;;;;;;;;5047129;28;20507;-62
2022/08/28 12:37:30;;;;;;;7.30;1.92;;;;;;;;;;5051023;28;20049;-62
2022/08/28 12:39:58;;;;;;;3.17;1.50;;;;;;;;;;5050994;28;20047;-62
2022/08/28 12:42:29;;;;;;;3.33;1.60;;;;;;;;;;5049894;28;20509;-62
2022/08/28 12:44:58;;;;;;;3.90;1.45;;;;;;;;;;5050759;28;20051;-62
2022/08/28 12:47:24;;;;;;;3.85;1.55;;;;;;;;;;5050305;28;20510;-62
2022/08/28 12:49:50;;;;;;;4.97;1.60;;;;;;;;;;5050726;28;20533;-62
2022/08/28 12:52:17;;;;;;;8.50;1.85;;;;;;;;;;5050045;28;20428;-62
2022/08/28 12:54:44;;;;;;;4.47;1.88;;;;;;;;;;5050429;28;20053;-62
2022/08/28 12:57:11;;;;;;;4.13;1.75;;;;;;;;;;5050710;28;20057;-62
2022/08/28 12:59:42;;;;;;;5.13;2.33;;;;;;;;;;5050388;28;20041;-62
2022/08/28 13:02:17;;;;;;;5.40;1.85;;;;;;;;;;5050638;28;20045;-62
2022/08/28 13:04:58;;;;;;;7.53;2.20;;;;;;;;;;5049797;28;20073;-61
2022/08/28 13:07:28;;;;;;;3.88;1.65;;;;;;;;;;5050397;28;20044;-62
2022/08/28 13:09:56;;;;;;;6.32;2.17;;;;;;;;;;5042364;28;20128;-62
2022/08/28 13:12:24;;;;;;;3.95;2.20;;;;;;;;;;5049954;28;20084;-60
2022/08/28 13:14:51;;;;;;;7.82;1.88;;;;;;;;;;5049728;28;20439;-60
2022/08/28 13:17:37;;;;;;;4.28;1.40;;;;;;;;;;5049723;28;20048;-60
2022/08/28 13:20:06;;;;;;;5.22;1.90;;;;;;;;;;5049876;28;20147;-59
2022/08/28 13:22:38;;;;;;;5.05;1.92;;;;;;;;;;5049447;28;20568;-59
2022/08/28 13:25:05;;;;;;;5.70;1.67;;;;;;;;;;5044663;28;20511;-60
2022/08/28 13:27:31;;;;;;;3.92;1.60;;;;;;;;;;5049207;28;20469;-60
2022/08/28 13:30:12;;;;;;;4.93;1.42;;;;;;;;;;5047332;28;20111;-60
2022/08/28 13:32:39;;;;;;;5.38;1.50;;;;;;;;;;5049282;28;20089;-60
2022/08/28 13:35:05;;;;;;;4.82;1.70;;;;;;;;;;5049564;28;20833;-62
2022/08/28 13:37:44;;;;;;;3.45;1.27;;;;;;;;;;5049299;28;20048;-62
2022/08/28 13:40:11;;;;;;;3.50;1.15;;;;;;;;;;5043331;28;20389;-62
2022/08/28 13:42:37;;;;;;;3.95;1.33;;;;;;;;;;5049431;28;20045;-63
2022/08/28 13:45:03;;;;;;;3.78;1.58;;;;;;;;;;5049693;28;20041;-62
2022/08/28 13:47:30;;;;;;;6.60;1.98;;;;;;;;;;5049188;28;20077;-62
2022/08/28 13:49:56;;;;;;;3.05;1.13;;;;;;;;;;5049286;28;20044;-62
2022/08/28 13:52:22;;;;;;;4.45;1.70;;;;;;;;;;5049314;28;20506;-62
2022/08/28 13:54:49;;;;;;;5.45;1.80;;;;;;;;;;5049133;28;20033;-61
2022/08/28 13:57:16;;;;;;;3.35;1.00;;;;;;;;;;5049199;28;20040;-62
2022/08/28 13:59:42;;;;;;;2.67;1.30;;;;;;;;;;5049159;28;20119;-62
2022/08/28 14:04:55;;;;;;;3.13;1.45;;;;;;;;;;5049008;28;20045;-62
2022/08/28 14:07:21;;;;;;;2.78;1.35;;;;;;;;;;5049678;28;20103;-62
2022/08/28 14:09:48;;;;;;;5.00;1.20;;;;;;;;;;5048935;28;20079;-62
2022/08/28 14:12:14;;;;;;;6.15;1.10;;;;;;;;;;5049085;28;20049;-62
2022/08/28 14:14:40;;;;;;;3.55;1.30;;;;;;;;;;5048826;28;20080;-62
2022/08/28 14:17:06;;;;;;;6.10;2.10;;;;;;;;;;5049076;28;20166;-62
2022/08/28 14:19:32;;;;;;;4.10;1.20;;;;;;;;;;5049245;28;20460;-62
2022/08/28 14:21:58;;;;;;;5.60;1.70;;;;;;;;;;5049145;28;20495;-62
2022/08/28 14:24:25;;;;;;;6.85;1.23;;;;;;;;;;5048381;28;20626;-62
2022/08/28 14:26:51;;;;;;;3.67;1.08;;;;;;;;;;5048935;28;20131;-62
2022/08/28 14:29:17;;;;;;;4.57;0.88;;;;;;;;;;5048840;28;20064;-63
2022/08/28 14:31:44;;;;;;;3.72;1.08;;;;;;;;;;5048659;28;20542;-63
2022/08/28 14:34:15;;;;;;;1.70;0.80;;;;;;;;;;5048993;28;20056;-62
2022/08/28 14:36:41;;;;;;;2.55;0.90;;;;;;;;;;5048621;28;20131;-62
2022/08/28 14:39:08;;;;;;;6.05;1.85;;;;;;;;;;5048726;28;20044;-62
2022/08/28 14:41:34;;;;;;;4.20;1.05;;;;;;;;;;5048557;28;20080;-62
2022/08/28 14:44:00;;;;;;;4.05;0.98;;;;;;;;;;5048308;28;20063;-62
2022/08/28 14:46:28;;;;;;;4.53;1.10;;;;;;;;;;5048590;28;20060;-62
2022/08/28 14:48:55;;;;;;;4.20;1.40;;;;;;;;;;5048240;28;20123;-62
2022/08/28 14:51:22;;;;;;;4.00;0.85;;;;;;;;;;5048477;28;20041;-62
2022/08/28 14:53:48;;;;;;;2.65;1.08;;;;;;;;;;5048452;28;20045;-62